createdAt,value
2019-03-30T00:00:34.464Z,25.57
2019-03-30T00:03:06.294Z,30.70
2019-03-30T00:05:38.073Z,29.73
2019-03-30T00:08:09.953Z,25.67
2019-03-30T00:10:41.723Z,26.10
2019-03-30T00:13:13.584Z,29.47
2019-03-30T00:15:49.034Z,27.70
2019-03-30T00:18:21.444Z,25.07
2019-03-30T00:20:53.282Z,30.60
2019-03-30T00:23:25.166Z,26.57
2019-03-30T00:25:56.941Z,27.63
2019-03-30T00:28:28.816Z,28.53
2019-03-30T00:31:07.067Z,30.33
2019-03-30T00:33:38.954Z,29.67
2019-03-30T00:36:10.753Z,30.13
2019-03-30T00:38:42.585Z,26.83
2019-03-30T00:41:14.423Z,30.17
2019-03-30T00:43:46.322Z,31.63
2019-03-30T00:46:18.107Z,32.03
2019-03-30T00:48:50.476Z,30.17
2019-03-30T00:51:22.233Z,27.07
2019-03-30T00:53:54.194Z,32.03
2019-03-30T00:56:26.002Z,27.63
2019-03-30T00:58:58.038Z,34.60
2019-03-30T01:01:29.793Z,27.70
2019-03-30T01:04:02.742Z,30.50
2019-03-30T01:06:39.082Z,28.50
2019-03-30T01:09:11.307Z,31.17
2019-03-30T01:11:43.116Z,29.10
2019-03-30T01:14:14.962Z,29.30
2019-03-30T01:16:47.287Z,30.03
2019-03-30T01:19:19.712Z,30.53
2019-03-30T01:21:51.631Z,29.30
2019-03-30T01:24:23.549Z,26.97
2019-03-30T01:26:55.412Z,29.47
2019-03-30T01:29:27.308Z,28.03
2019-03-30T01:32:02.883Z,24.67
2019-03-30T01:34:34.712Z,28.33
2019-03-30T01:37:06.502Z,28.57
2019-03-30T01:39:38.351Z,25.20
2019-03-30T01:42:10.102Z,28.37
2019-03-30T01:44:41.945Z,29.70
2019-03-30T01:47:13.734Z,26.33
2019-03-30T01:49:46.127Z,24.50
2019-03-30T01:52:17.862Z,28.37
2019-03-30T01:54:49.776Z,25.53
2019-03-30T01:57:21.602Z,22.83
2019-03-30T01:59:53.513Z,27.60
2019-03-30T02:02:25.291Z,26.67
2019-03-30T02:04:57.415Z,29.23
2019-03-30T02:07:29.192Z,24.80
2019-03-30T02:10:01.149Z,26.97
2019-03-30T02:12:32.957Z,28.67
2019-03-30T02:15:05.478Z,27.67
2019-03-30T02:17:37.341Z,26.30
2019-03-30T02:20:12.883Z,26.77
2019-03-30T02:22:48.423Z,27.00
2019-03-30T02:25:20.562Z,27.73
2019-03-30T02:27:52.352Z,26.53
2019-03-30T02:30:24.193Z,25.80
2019-03-30T02:32:56.027Z,28.27
2019-03-30T02:35:28.314Z,27.33
2019-03-30T02:38:00.303Z,25.50
2019-03-30T02:40:32.174Z,24.27
2019-03-30T02:43:03.989Z,27.13
2019-03-30T02:45:35.918Z,27.13
2019-03-30T02:48:07.684Z,26.17
2019-03-30T02:50:49.471Z,27.37
2019-03-30T02:53:13.792Z,27.73
2019-03-30T02:55:45.782Z,28.33
2019-03-30T02:58:17.588Z,30.60
2019-03-30T03:00:55.404Z,28.37
2019-03-30T03:03:27.263Z,26.63
2019-03-30T03:05:59.433Z,27.40
2019-03-30T03:08:31.326Z,26.40
2019-03-30T03:11:03.514Z,26.33
2019-03-30T03:13:35.293Z,27.27
2019-03-30T03:16:07.185Z,27.17
2019-03-30T03:18:38.963Z,25.37
2019-03-30T03:21:11.230Z,24.90
2019-03-30T03:23:43.673Z,25.53
2019-03-30T03:26:15.527Z,25.60
2019-03-30T03:28:47.443Z,23.33
2019-03-30T03:31:19.299Z,27.80
2019-03-30T03:33:51.143Z,26.17
2019-03-30T03:36:23.050Z,25.70
2019-03-30T03:38:54.905Z,26.53
2019-03-30T03:41:26.761Z,25.03
2019-03-30T03:43:58.643Z,28.17
2019-03-30T03:46:30.524Z,29.53
2019-03-30T03:49:02.296Z,25.93
2019-03-30T03:51:35.773Z,27.43
2019-03-30T03:54:07.651Z,24.43
2019-03-30T03:56:39.484Z,27.03
2019-03-30T03:59:15.144Z,24.93
2019-03-30T04:01:47.090Z,23.67
2019-03-30T04:04:20.992Z,26.73
2019-03-30T04:06:52.975Z,23.40
2019-03-30T04:09:24.795Z,23.67
2019-03-30T04:11:57.363Z,23.47
2019-03-30T04:14:29.143Z,25.63
2019-03-30T04:17:01.156Z,24.30
2019-03-30T04:19:33.131Z,23.33
2019-03-30T04:22:05.802Z,22.60
2019-03-30T04:24:41.544Z,24.87
2019-03-30T04:27:13.411Z,23.97
2019-03-30T04:29:45.182Z,26.30
2019-03-30T04:32:17.045Z,23.67
2019-03-30T04:34:48.840Z,25.00
2019-03-30T04:37:20.849Z,22.53
2019-03-30T04:39:52.773Z,22.90
2019-03-30T04:42:24.620Z,22.03
2019-03-30T04:44:56.432Z,23.43
2019-03-30T04:47:28.317Z,24.13
2019-03-30T04:50:00.441Z,21.80
2019-03-30T04:52:33.462Z,24.80
2019-03-30T04:55:05.672Z,24.17
2019-03-30T04:57:37.520Z,24.13
2019-03-30T05:00:09.272Z,23.53
2019-03-30T05:02:41.122Z,25.47
2019-03-30T05:05:12.898Z,24.80
2019-03-30T05:07:44.756Z,23.23
2019-03-30T05:10:16.642Z,25.67
2019-03-30T05:12:48.473Z,23.97
2019-03-30T05:15:20.240Z,23.87
2019-03-30T05:17:52.156Z,26.20
2019-03-30T05:20:24.219Z,25.03
2019-03-30T05:22:56.492Z,25.93
2019-03-30T05:25:29.602Z,24.20
2019-03-30T05:28:01.462Z,24.20
2019-03-30T05:30:33.326Z,21.77
2019-03-30T05:33:06.414Z,23.53
2019-03-30T05:35:38.482Z,21.17
2019-03-30T05:38:10.341Z,21.73
2019-03-30T05:40:42.110Z,19.23
2019-03-30T05:43:13.940Z,22.60
2019-03-30T05:45:45.723Z,24.63
2019-03-30T05:48:17.585Z,20.53
2019-03-30T05:50:49.455Z,22.07
2019-03-30T05:53:21.877Z,19.03
2019-03-30T05:55:53.660Z,21.87
2019-03-30T05:58:25.542Z,17.83
2019-03-30T06:00:58.492Z,20.33
2019-03-30T06:03:30.463Z,22.83
2019-03-30T06:06:02.321Z,18.07
2019-03-30T06:08:34.284Z,18.77
2019-03-30T06:11:06.150Z,20.33
2019-03-30T06:13:38.156Z,23.80
2019-03-30T06:16:09.942Z,19.43
2019-03-30T06:18:41.818Z,20.23
2019-03-30T06:21:13.662Z,17.17
2019-03-30T06:23:48.466Z,21.47
2019-03-30T06:26:20.020Z,16.10
2019-03-30T06:28:51.962Z,19.07
2019-03-30T06:31:23.813Z,21.83
2019-03-30T06:33:55.702Z,19.40
2019-03-30T06:36:27.772Z,19.00
2019-03-30T06:38:59.590Z,19.67
2019-03-30T06:41:31.432Z,17.43
2019-03-30T06:44:04.432Z,18.87
2019-03-30T06:46:39.382Z,18.67
2019-03-30T06:49:09.977Z,16.33
2019-03-30T06:51:41.852Z,26.53
2019-03-30T06:54:14.906Z,16.93
2019-03-30T06:56:47.002Z,22.73
2019-03-30T06:59:18.922Z,17.40
2019-03-30T07:01:50.753Z,18.63
2019-03-30T07:04:22.729Z,19.10
2019-03-30T07:06:54.622Z,26.73
2019-03-30T07:09:26.680Z,22.47
2019-03-30T07:11:58.632Z,19.87
2019-03-30T07:14:31.671Z,19.13
2019-03-30T07:17:03.465Z,16.70
2019-03-30T07:19:36.657Z,15.30
2019-03-30T07:22:08.472Z,16.30
2019-03-30T07:24:41.242Z,18.00
2019-03-30T07:27:13.682Z,16.17
2019-03-30T07:29:45.533Z,16.27
2019-03-30T07:32:17.325Z,16.60
2019-03-30T07:34:49.233Z,14.90
2019-03-30T07:37:20.992Z,20.93
2019-03-30T07:39:52.853Z,16.37
2019-03-30T07:42:24.642Z,17.30
2019-03-30T07:44:56.512Z,15.20
2019-03-30T07:47:28.433Z,15.83
2019-03-30T07:50:00.394Z,17.00
2019-03-30T07:52:32.152Z,15.73
2019-03-30T07:55:05.354Z,21.40
2019-03-30T07:57:37.122Z,15.63
2019-03-30T08:00:09.003Z,15.57
2019-03-30T08:02:40.782Z,16.77
2019-03-30T08:05:12.650Z,18.20
2019-03-30T08:07:44.654Z,17.77
2019-03-30T08:10:16.584Z,17.47
2019-03-30T08:12:49.493Z,18.90
2019-03-30T08:15:21.925Z,17.60
2019-03-30T08:17:55.701Z,18.80
2019-03-30T08:20:27.904Z,16.20
2019-03-30T08:23:00.144Z,17.80
2019-03-30T08:25:33.738Z,17.33
2019-03-30T08:28:12.185Z,18.00
2019-03-30T08:30:44.054Z,17.77
2019-03-30T08:33:15.811Z,18.27
2019-03-30T08:35:47.644Z,23.87
2019-03-30T08:38:19.634Z,33.83
2019-03-30T08:40:51.542Z,49.23
2019-03-30T08:43:23.290Z,36.20
2019-03-30T08:45:55.203Z,47.93
2019-03-30T08:48:27.065Z,50.27
2019-03-30T08:50:58.999Z,25.77
2019-03-30T08:53:30.756Z,39.13
2019-03-30T08:56:03.214Z,26.40
2019-03-30T08:58:35.017Z,24.90
2019-03-30T09:01:07.043Z,21.80
2019-03-30T09:03:38.820Z,33.57
2019-03-30T09:06:10.749Z,42.37
2019-03-30T09:08:42.588Z,29.03
2019-03-30T09:11:14.531Z,33.37
2019-03-30T09:13:46.343Z,25.60
2019-03-30T09:16:18.273Z,22.67
2019-03-30T09:18:50.166Z,18.43
2019-03-30T09:21:22.062Z,46.73
2019-03-30T09:24:08.433Z,32.50
2019-03-30T09:32:53.897Z,53.60
2019-03-30T09:35:25.846Z,36.83
2019-03-30T09:37:57.751Z,29.93
2019-03-30T09:40:29.644Z,36.73
2019-03-30T09:43:01.598Z,30.60
2019-03-30T09:45:33.397Z,34.57
2019-03-30T09:48:05.605Z,35.87
2019-03-30T09:50:38.552Z,42.03
2019-03-30T09:53:10.841Z,26.20
2019-03-30T09:55:42.679Z,24.60
2019-03-30T09:58:15.343Z,25.17
2019-03-30T10:00:47.303Z,29.40
2019-03-30T10:03:19.162Z,29.20
2019-03-30T10:05:51.074Z,31.57
2019-03-30T10:08:24.280Z,28.97
2019-03-30T10:10:56.083Z,27.40
2019-03-30T10:13:28.097Z,25.93
2019-03-30T10:15:59.947Z,28.03
2019-03-30T10:18:31.912Z,24.27
2019-03-30T10:21:03.784Z,25.50
2019-03-30T10:23:35.763Z,31.47
2019-03-30T10:26:07.558Z,38.13
2019-03-30T10:28:39.809Z,26.53
2019-03-30T10:31:11.662Z,22.83
2019-03-30T10:33:43.862Z,30.40
2019-03-30T10:36:15.660Z,26.80
2019-03-30T10:38:47.522Z,25.73
2019-03-30T10:41:19.382Z,21.13
2019-03-30T10:43:51.204Z,23.73
2019-03-30T10:46:23.018Z,21.30
2019-03-30T10:48:55.112Z,21.20
2019-03-30T10:51:27.002Z,20.77
2019-03-30T10:53:58.921Z,27.97
2019-03-30T10:56:30.732Z,22.97
2019-03-30T10:59:02.902Z,19.50
2019-03-30T11:01:34.794Z,21.00
2019-03-30T11:04:06.884Z,21.17
2019-03-30T11:06:38.754Z,24.03
2019-03-30T11:09:10.672Z,18.50
2019-03-30T11:11:42.543Z,20.37
2019-03-30T11:14:14.522Z,17.57
2019-03-30T11:16:46.352Z,18.87
2019-03-30T11:19:18.362Z,18.93
2019-03-30T11:21:50.251Z,18.27
2019-03-30T11:24:22.226Z,20.17
2019-03-30T11:26:54.023Z,18.60
2019-03-30T11:29:27.561Z,20.37
2019-03-30T11:31:59.477Z,19.40
2019-03-30T11:34:38.441Z,19.70
2019-03-30T11:37:10.301Z,17.97
2019-03-30T11:39:42.282Z,19.67
2019-03-30T11:42:14.063Z,20.20
2019-03-30T11:44:46.042Z,16.83
2019-03-30T11:47:17.972Z,19.83
2019-03-30T11:49:49.953Z,18.73
2019-03-30T11:52:21.791Z,21.30
2019-03-30T11:54:53.803Z,18.00
2019-03-30T11:57:25.643Z,19.87
2019-03-30T11:59:58.005Z,19.43
2019-03-30T12:02:30.406Z,17.97
2019-03-30T12:05:03.281Z,20.23
2019-03-30T12:07:35.151Z,20.30
2019-03-30T12:10:07.614Z,19.87
2019-03-30T12:12:39.580Z,21.23
2019-03-30T12:15:11.938Z,19.07
2019-03-30T12:17:49.644Z,19.37
2019-03-30T12:20:26.014Z,20.67
2019-03-30T12:22:57.883Z,27.73
2019-03-30T12:25:35.701Z,25.20
2019-03-30T12:28:06.712Z,21.33
2019-03-30T12:30:39.192Z,16.70
2019-03-30T12:33:11.211Z,17.80
2019-03-30T12:35:47.092Z,18.83
2019-03-30T12:38:18.912Z,17.47
2019-03-30T12:40:51.192Z,16.53
2019-03-30T12:43:22.943Z,16.87
2019-03-30T12:45:54.792Z,14.53
2019-03-30T12:48:26.615Z,23.57
2019-03-30T12:50:58.842Z,20.20
2019-03-30T12:53:31.004Z,21.57
2019-03-30T12:56:03.074Z,18.53
2019-03-30T12:58:34.993Z,19.33
2019-03-30T13:01:07.212Z,17.87
2019-03-30T13:03:38.952Z,18.77
2019-03-30T13:06:10.813Z,22.40
2019-03-30T13:08:42.572Z,17.07
2019-03-30T13:11:14.562Z,17.00
2019-03-30T13:13:46.433Z,17.60
2019-03-30T13:16:18.322Z,45.90
2019-03-30T13:18:50.122Z,28.07
2019-03-30T13:21:21.966Z,16.83
2019-03-30T13:23:53.798Z,23.50
2019-03-30T13:26:25.714Z,21.03
2019-03-30T13:28:58.562Z,20.33
2019-03-30T13:31:30.703Z,18.03
2019-03-30T13:34:02.452Z,22.13
2019-03-30T13:36:42.506Z,22.53
2019-03-30T13:39:14.303Z,21.73
2019-03-30T13:41:46.463Z,23.10
2019-03-30T13:44:18.303Z,19.00
2019-03-30T13:46:50.315Z,18.37
2019-03-30T13:49:22.242Z,20.10
2019-03-30T13:51:54.082Z,21.63
2019-03-30T13:54:25.873Z,21.63
2019-03-30T13:56:57.742Z,22.07
2019-03-30T13:59:29.542Z,29.60
2019-03-30T14:02:01.792Z,24.17
2019-03-30T14:04:33.523Z,25.67
2019-03-30T14:07:05.788Z,28.13
2019-03-30T14:09:37.828Z,25.33
2019-03-30T14:12:10.802Z,21.90
2019-03-30T14:14:42.550Z,20.93
2019-03-30T14:17:14.692Z,26.77
2019-03-30T14:19:46.485Z,21.83
2019-03-30T14:22:18.372Z,19.93
2019-03-30T14:24:50.276Z,22.20
2019-03-30T14:27:22.342Z,22.23
2019-03-30T14:29:54.515Z,22.40
2019-03-30T14:32:26.613Z,23.13
2019-03-30T14:34:58.366Z,22.83
2019-03-30T14:37:30.223Z,28.17
2019-03-30T14:40:02.333Z,40.23
2019-03-30T14:42:34.544Z,27.03
2019-03-30T14:45:06.733Z,26.37
2019-03-30T14:47:39.110Z,31.87
2019-03-30T14:50:10.964Z,26.60
2019-03-30T14:52:42.863Z,24.37
2019-03-30T14:55:14.685Z,30.33
2019-03-30T14:57:47.121Z,30.23
2019-03-30T15:00:18.897Z,27.90
2019-03-30T15:02:50.863Z,29.57
2019-03-30T15:05:22.632Z,30.50
2019-03-30T15:07:58.514Z,29.13
2019-03-30T15:10:30.333Z,35.70
2019-03-30T15:13:02.294Z,33.07
2019-03-30T15:15:34.112Z,31.03
2019-03-30T15:18:06.072Z,39.53
2019-03-30T15:20:38.952Z,36.90
2019-03-30T15:23:10.822Z,23.73
2019-03-30T15:25:42.682Z,27.13
2019-03-30T15:28:16.124Z,29.00
2019-03-30T15:30:47.945Z,60.10
2019-03-30T15:33:19.967Z,45.33
2019-03-30T15:35:51.764Z,44.83
2019-03-30T15:38:23.767Z,37.37
2019-03-30T15:40:55.909Z,36.30
2019-03-30T15:43:38.132Z,51.23
2019-03-30T15:46:01.688Z,37.60
2019-03-30T15:48:33.723Z,40.60
2019-03-30T15:51:05.541Z,38.90
2019-03-30T15:53:37.575Z,35.37
2019-03-30T15:56:15.492Z,32.83
2019-03-30T15:58:48.194Z,30.20
2019-03-30T16:01:20.353Z,50.17
2019-03-30T16:03:52.713Z,53.20
2019-03-30T16:06:24.480Z,39.37
2019-03-30T16:08:58.695Z,37.10
2019-03-30T16:11:32.634Z,38.23
2019-03-30T16:14:04.584Z,39.17
2019-03-30T16:16:36.528Z,45.03
2019-03-30T16:19:08.524Z,45.50
2019-03-30T16:21:40.443Z,66.27
2019-03-30T16:24:12.505Z,56.87
2019-03-30T16:26:44.285Z,54.83
2019-03-30T16:29:17.243Z,59.10
2019-03-30T16:31:49.087Z,58.13
2019-03-30T16:34:21.223Z,66.47
2019-03-30T16:36:53.434Z,63.70
2019-03-30T16:39:25.812Z,72.53
2019-03-30T16:42:00.532Z,69.57
2019-03-30T16:44:32.812Z,74.00
2019-03-30T16:47:04.683Z,67.70
2019-03-30T16:49:36.852Z,62.13
2019-03-30T16:52:08.702Z,65.70
2019-03-30T16:54:40.774Z,54.30
2019-03-30T16:57:12.682Z,55.33
2019-03-30T16:59:45.094Z,58.37
2019-03-30T17:02:16.893Z,56.83
2019-03-30T17:04:49.023Z,54.53
2019-03-30T17:07:20.996Z,53.97
2019-03-30T17:09:56.532Z,52.70
2019-03-30T17:12:28.492Z,55.40
2019-03-30T17:15:00.986Z,54.20
2019-03-30T17:17:32.941Z,57.53
2019-03-30T17:20:07.766Z,125.70
2019-03-30T17:22:39.542Z,125.40
2019-03-30T17:25:11.623Z,240.43
2019-03-30T17:27:57.092Z,218.57
2019-03-30T17:30:17.881Z,98.73
2019-03-30T17:32:49.754Z,110.53
2019-03-30T17:35:22.202Z,118.53
2019-03-30T17:37:54.382Z,147.30
2019-03-30T17:40:26.346Z,162.73
2019-03-30T17:42:58.192Z,171.53
2019-03-30T17:45:30.942Z,156.30
2019-03-30T17:48:02.945Z,148.67
2019-03-30T17:50:38.643Z,166.37
2019-03-30T17:53:10.523Z,132.73
2019-03-30T17:55:42.615Z,139.13
2019-03-30T17:58:14.423Z,157.33
2019-03-30T18:00:47.544Z,134.97
2019-03-30T18:03:19.306Z,144.87
2019-03-30T18:05:51.223Z,161.37
2019-03-30T18:08:22.992Z,165.77
2019-03-30T18:10:55.200Z,179.50
2019-03-30T18:13:27.023Z,169.37
2019-03-30T18:15:59.113Z,180.20
2019-03-30T18:18:30.992Z,175.63
2019-03-30T18:21:03.105Z,166.07
2019-03-30T18:23:35.225Z,170.83
2019-03-30T18:26:07.117Z,219.63
2019-03-30T18:28:39.167Z,182.03
2019-03-30T18:31:11.452Z,200.70
2019-03-30T18:33:43.303Z,207.00
2019-03-30T18:36:15.445Z,203.40
2019-03-30T18:38:50.584Z,206.60
2019-03-30T18:41:22.643Z,208.67
2019-03-30T18:43:54.382Z,207.33
2019-03-30T18:46:26.582Z,188.13
2019-03-30T18:48:58.831Z,205.50
2019-03-30T18:51:30.905Z,201.67
2019-03-30T18:54:03.172Z,214.13
2019-03-30T18:56:35.468Z,237.83
2019-03-30T18:59:07.502Z,235.57
2019-03-30T19:01:40.193Z,231.00
2019-03-30T19:04:12.154Z,231.37
2019-03-30T19:06:47.706Z,249.60
2019-03-30T19:09:19.766Z,234.43
2019-03-30T19:11:53.912Z,242.77
2019-03-30T19:14:25.786Z,245.37
2019-03-30T19:16:57.933Z,250.07
2019-03-30T19:19:29.788Z,257.53
2019-03-30T19:22:02.366Z,259.60
2019-03-30T19:24:34.413Z,255.57
2019-03-30T19:27:06.364Z,255.60
2019-03-30T19:29:38.135Z,254.33
2019-03-30T19:32:10.314Z,259.80
2019-03-30T19:34:42.133Z,249.80
2019-03-30T19:37:14.103Z,268.43
2019-03-30T19:39:45.863Z,265.77
2019-03-30T19:42:17.744Z,268.43
2019-03-30T19:44:49.543Z,258.70
2019-03-30T19:47:21.436Z,254.80
2019-03-30T19:49:53.230Z,250.93
2019-03-30T19:52:38.985Z,244.90
2019-03-30T19:54:59.022Z,240.47
2019-03-30T19:57:31.002Z,236.13
2019-03-30T20:00:04.315Z,243.03
2019-03-30T20:02:37.233Z,248.23
2019-03-30T20:05:10.942Z,247.67
2019-03-30T20:07:43.152Z,237.33
2019-03-30T20:10:15.053Z,233.73
2019-03-30T20:12:53.882Z,226.83
2019-03-30T20:15:25.842Z,227.40
2019-03-30T20:17:57.957Z,253.77
2019-03-30T20:20:29.863Z,223.37
2019-03-30T20:23:02.244Z,215.63
2019-03-30T20:25:35.133Z,233.10
2019-03-30T20:28:07.300Z,223.03
2019-03-30T20:30:39.255Z,219.83
2019-03-30T20:33:11.637Z,228.33
2019-03-30T20:35:49.642Z,229.10
2019-03-30T20:38:21.813Z,234.23
2019-03-30T20:40:53.762Z,234.03
2019-03-30T20:43:29.359Z,249.70
2019-03-30T20:46:07.112Z,225.73
2019-03-30T20:48:42.752Z,225.33
2019-03-30T20:51:14.932Z,244.83
2019-03-30T20:53:47.612Z,270.17
2019-03-30T20:56:19.662Z,263.90
2019-03-30T20:58:51.742Z,282.67
2019-03-30T21:01:29.832Z,282.53
2019-03-30T21:04:02.220Z,272.93
2019-03-30T21:06:34.314Z,287.33
2019-03-30T21:09:06.792Z,278.50
2019-03-30T21:11:47.922Z,276.87
2019-03-30T21:14:23.063Z,270.47
2019-03-30T21:16:57.893Z,265.00
2019-03-30T21:19:29.963Z,257.80
2019-03-30T21:22:02.355Z,255.23
2019-03-30T21:24:34.814Z,253.27
2019-03-30T21:27:07.091Z,257.23
2019-03-30T21:29:53.966Z,253.17
2019-03-30T21:32:15.095Z,248.63
2019-03-30T21:34:47.682Z,254.63
2019-03-30T21:37:19.735Z,247.20
2019-03-30T21:39:51.712Z,260.33
2019-03-30T21:42:23.662Z,244.40
2019-03-30T21:44:55.722Z,241.07
2019-03-30T21:47:36.702Z,248.80
2019-03-30T21:52:40.622Z,233.27
2019-03-30T21:55:12.692Z,232.00
2019-03-30T21:57:44.570Z,251.23
2019-03-30T22:00:36.582Z,231.93
2019-03-30T22:03:08.362Z,233.23
2019-03-30T22:05:41.022Z,221.40
2019-03-30T22:08:12.883Z,240.63
2019-03-30T22:10:44.960Z,225.37
2019-03-30T22:13:16.913Z,217.60
2019-03-30T22:15:52.972Z,221.90
2019-03-30T22:18:24.939Z,218.60
2019-03-30T22:20:57.121Z,216.20
2019-03-30T22:23:30.282Z,219.33
2019-03-30T22:26:05.912Z,212.00
2019-03-30T22:28:43.905Z,206.17
2019-03-30T22:31:15.952Z,220.33
2019-03-30T22:33:48.173Z,214.07
2019-03-30T22:36:20.452Z,218.27
2019-03-30T22:38:52.422Z,209.70
2019-03-30T22:41:24.382Z,212.77
2019-03-30T22:43:56.152Z,215.83
2019-03-30T22:46:29.027Z,211.23
2019-03-30T22:49:00.762Z,229.07
2019-03-30T22:51:33.052Z,237.47
2019-03-30T22:54:04.792Z,242.97
2019-03-30T22:56:36.662Z,232.03
2019-03-30T22:59:08.513Z,219.20
2019-03-30T23:01:44.283Z,217.93
2019-03-30T23:04:25.142Z,217.10
2019-03-30T23:06:57.722Z,220.67
2019-03-30T23:09:29.572Z,220.47
2019-03-30T23:12:01.638Z,220.73
2019-03-30T23:14:33.503Z,222.93
2019-03-30T23:17:09.352Z,206.97
2019-03-30T23:19:41.422Z,211.33
2019-03-30T23:22:13.392Z,221.93
2019-03-30T23:24:45.244Z,212.47
2019-03-30T23:27:18.332Z,226.07
2019-03-30T23:29:50.300Z,199.13
2019-03-30T23:32:22.683Z,215.17
2019-03-30T23:34:54.733Z,229.87
2019-03-30T23:37:27.213Z,205.27
2019-03-30T23:39:59.062Z,210.83
2019-03-30T23:42:31.142Z,212.60
2019-03-30T23:45:03.825Z,210.60
2019-03-30T23:47:36.084Z,213.73
2019-03-30T23:50:08.254Z,203.93
2019-03-30T23:52:40.322Z,207.87
2019-03-30T23:55:12.382Z,203.47
2019-03-30T23:57:44.446Z,191.37
